createdAt,value
2022-07-25T00:01:20.542Z,9.17
2022-07-25T00:03:47.826Z,8.86
2022-07-25T00:06:17.833Z,8.75
2022-07-25T00:08:45.075Z,8.82
2022-07-25T00:11:12.067Z,8.88
2022-07-25T00:13:39.163Z,8.56
2022-07-25T00:16:06.780Z,8.81
2022-07-25T00:18:33.920Z,8.49
2022-07-25T00:21:01.063Z,8.33
2022-07-25T00:23:28.047Z,8.33
2022-07-25T00:25:55.059Z,8.26
2022-07-25T00:28:22.034Z,8.05
2022-07-25T00:30:49.893Z,8.08
2022-07-25T00:33:16.930Z,8.08
2022-07-25T00:35:44.006Z,8.19
2022-07-25T00:38:11.027Z,8.67
2022-07-25T00:40:38.471Z,8.73
2022-07-25T00:43:08.275Z,9.06
2022-07-25T00:45:35.436Z,9.20
2022-07-25T00:48:02.394Z,8.74
2022-07-25T00:50:29.817Z,8.37
2022-07-25T00:52:57.110Z,8.53
2022-07-25T00:55:26.181Z,8.64
2022-07-25T00:57:53.172Z,8.39
2022-07-25T01:00:20.377Z,8.68
2022-07-25T01:02:48.064Z,9.08
2022-07-25T01:05:18.087Z,8.81
2022-07-25T01:07:45.835Z,9.14
2022-07-25T01:10:12.889Z,9.28
2022-07-25T01:12:55.530Z,9.39
2022-07-25T01:15:24.575Z,9.45
2022-07-25T01:17:51.911Z,9.32
2022-07-25T01:20:27.036Z,9.51
2022-07-25T01:22:54.737Z,9.66
2022-07-25T01:25:22.900Z,9.52
2022-07-25T01:27:55.896Z,9.52
2022-07-25T01:30:25.350Z,9.25
2022-07-25T01:32:52.939Z,8.96
2022-07-25T01:35:20.117Z,9.10
2022-07-25T01:37:47.244Z,8.90
2022-07-25T01:40:15.068Z,8.92
2022-07-25T01:42:43.561Z,8.57
2022-07-25T01:45:12.224Z,8.63
2022-07-25T01:47:40.243Z,8.75
2022-07-25T01:50:08.693Z,8.65
2022-07-25T01:52:39.567Z,8.63
2022-07-25T01:55:07.650Z,8.49
2022-07-25T01:57:36.114Z,8.32
2022-07-25T02:00:08.105Z,8.21
2022-07-25T02:02:35.865Z,8.17
2022-07-25T02:05:03.110Z,8.05
2022-07-25T02:07:30.259Z,8.36
2022-07-25T02:09:57.240Z,8.02
2022-07-25T02:12:24.211Z,7.85
2022-07-25T02:14:51.296Z,7.76
2022-07-25T02:17:18.374Z,7.82
2022-07-25T02:19:45.614Z,7.61
2022-07-25T02:22:12.652Z,7.47
2022-07-25T02:24:39.875Z,7.55
2022-07-25T02:27:07.010Z,7.38
2022-07-25T02:29:34.115Z,7.45
2022-07-25T02:32:01.102Z,7.15
2022-07-25T02:34:28.159Z,6.75
2022-07-25T02:36:55.176Z,7.17
2022-07-25T02:39:22.222Z,6.80
2022-07-25T02:41:49.235Z,7.04
2022-07-25T02:44:16.227Z,6.81
2022-07-25T02:46:43.271Z,6.85
2022-07-25T02:49:11.874Z,6.72
2022-07-25T02:51:39.035Z,6.91
2022-07-25T02:54:06.147Z,7.19
2022-07-25T02:56:33.228Z,7.43
2022-07-25T02:59:00.294Z,7.18
2022-07-25T03:01:27.366Z,7.03
2022-07-25T03:03:54.491Z,6.99
2022-07-25T03:06:21.568Z,6.98
2022-07-25T03:08:48.649Z,7.04
2022-07-25T03:11:16.796Z,7.34
2022-07-25T03:13:43.811Z,7.07
2022-07-25T03:16:11.060Z,6.98
2022-07-25T03:18:38.622Z,7.46
2022-07-25T03:21:06.054Z,7.25
2022-07-25T03:23:33.086Z,6.86
2022-07-25T03:26:00.044Z,7.10
2022-07-25T03:28:27.023Z,7.13
2022-07-25T03:30:54.838Z,7.25
2022-07-25T03:33:21.878Z,7.18
2022-07-25T03:35:48.917Z,7.24
2022-07-25T03:38:16.319Z,7.44
2022-07-25T03:40:43.410Z,7.23
2022-07-25T03:43:10.503Z,7.44
2022-07-25T03:45:37.541Z,7.70
2022-07-25T03:48:04.782Z,7.69
2022-07-25T03:50:31.869Z,7.64
2022-07-25T03:52:58.934Z,7.71
2022-07-25T03:55:25.873Z,7.82
2022-07-25T03:57:52.869Z,7.70
2022-07-25T04:00:19.883Z,7.68
2022-07-25T04:02:47.083Z,7.59
2022-07-25T04:05:14.098Z,7.85
2022-07-25T04:07:41.087Z,8.16
2022-07-25T04:10:10.238Z,7.98
2022-07-25T04:12:38.944Z,8.03
2022-07-25T04:15:07.114Z,8.16
2022-07-25T04:17:34.084Z,8.36
2022-07-25T04:20:01.199Z,8.64
2022-07-25T04:22:28.235Z,8.67
2022-07-25T04:24:55.234Z,8.77
2022-07-25T04:27:22.291Z,9.09
2022-07-25T04:29:49.305Z,8.85
2022-07-25T04:32:21.390Z,9.16
2022-07-25T04:34:52.173Z,9.69
2022-07-25T04:37:19.169Z,10.43
2022-07-25T04:39:46.128Z,10.46
2022-07-25T04:42:13.121Z,10.90
2022-07-25T04:44:40.059Z,11.02
2022-07-25T04:47:07.056Z,11.25
2022-07-25T04:49:34.026Z,11.38
2022-07-25T04:52:01.007Z,11.46
2022-07-25T04:54:28.467Z,11.34
2022-07-25T04:56:55.672Z,12.07
2022-07-25T04:59:22.788Z,12.19
2022-07-25T05:01:49.858Z,12.06
2022-07-25T05:04:16.955Z,12.22
2022-07-25T05:06:44.277Z,12.68
2022-07-25T05:09:11.329Z,12.28
2022-07-25T05:11:39.728Z,12.27
2022-07-25T05:14:08.838Z,12.64
2022-07-25T05:16:36.250Z,13.28
2022-07-25T05:19:03.381Z,13.18
2022-07-25T05:21:30.470Z,13.18
2022-07-25T05:23:57.573Z,13.21
2022-07-25T05:26:27.738Z,13.02
2022-07-25T05:29:01.086Z,13.60
2022-07-25T05:32:03.686Z,13.38
2022-07-25T05:34:30.807Z,13.62
2022-07-25T05:36:57.746Z,14.35
2022-07-25T05:39:24.721Z,13.75
2022-07-25T05:41:51.758Z,14.47
2022-07-25T05:44:18.903Z,14.75
2022-07-25T05:46:47.720Z,14.98
2022-07-25T05:49:16.227Z,14.43
2022-07-25T05:51:43.316Z,14.61
2022-07-25T05:54:12.861Z,14.71
2022-07-25T05:56:40.057Z,14.86
2022-07-25T05:59:07.056Z,15.32
2022-07-25T06:01:34.792Z,14.82
2022-07-25T06:04:02.894Z,14.95
2022-07-25T06:06:32.628Z,15.15
2022-07-25T06:08:59.825Z,15.34
2022-07-25T06:11:31.475Z,15.12
2022-07-25T06:13:59.302Z,15.08
2022-07-25T06:16:29.645Z,15.36
2022-07-25T06:18:56.625Z,15.44
2022-07-25T06:21:23.598Z,15.40
2022-07-25T06:23:53.184Z,15.43
2022-07-25T06:26:20.317Z,15.29
2022-07-25T06:28:48.052Z,15.51
2022-07-25T06:31:15.191Z,15.67
2022-07-25T06:33:42.226Z,15.81
2022-07-25T06:36:09.614Z,15.50
2022-07-25T06:38:37.014Z,15.41
2022-07-25T06:41:04.291Z,15.67
2022-07-25T06:43:31.287Z,15.98
2022-07-25T06:45:58.255Z,15.61
2022-07-25T06:48:26.615Z,15.90
2022-07-25T06:50:53.657Z,16.17
2022-07-25T06:53:20.866Z,15.89
2022-07-25T06:55:48.099Z,16.27
2022-07-25T06:58:15.119Z,16.15
2022-07-25T07:00:43.339Z,16.24
2022-07-25T07:03:10.946Z,16.36
2022-07-25T07:05:39.905Z,16.50
2022-07-25T07:08:07.084Z,16.44
2022-07-25T07:10:47.880Z,16.86
2022-07-25T07:13:30.267Z,16.87
2022-07-25T07:15:57.943Z,16.77
2022-07-25T07:18:25.060Z,16.92
2022-07-25T07:20:54.822Z,17.04
2022-07-25T07:23:21.785Z,16.85
2022-07-25T07:25:48.920Z,17.07
2022-07-25T07:28:17.207Z,17.25
2022-07-25T07:33:35.156Z,17.40
2022-07-25T07:36:02.686Z,17.47
2022-07-25T07:38:30.875Z,17.39
2022-07-25T07:41:01.227Z,17.70
2022-07-25T07:43:31.964Z,17.71
2022-07-25T07:46:10.901Z,17.86
2022-07-25T07:48:38.779Z,18.00
2022-07-25T07:51:09.521Z,17.87
2022-07-25T07:54:10.630Z,18.05
2022-07-25T07:56:37.674Z,18.21
2022-07-25T07:59:08.444Z,17.90
2022-07-25T08:01:35.760Z,18.60
2022-07-25T08:04:11.888Z,18.25
2022-07-25T08:06:43.129Z,18.46
2022-07-25T08:09:11.417Z,18.13
2022-07-25T08:11:41.215Z,18.32
2022-07-25T08:14:08.595Z,18.68
2022-07-25T08:16:36.047Z,18.69
2022-07-25T08:19:03.332Z,18.82
2022-07-25T08:21:30.336Z,19.38
2022-07-25T08:23:57.360Z,19.43
2022-07-25T08:26:27.713Z,19.54
2022-07-25T08:29:17.173Z,19.47
2022-07-25T08:31:42.225Z,19.74
2022-07-25T08:34:09.840Z,19.91
2022-07-25T08:36:38.065Z,19.94
2022-07-25T08:39:05.510Z,20.21
2022-07-25T08:41:34.318Z,20.21
2022-07-25T08:44:02.860Z,20.27
2022-07-25T08:46:30.432Z,20.10
2022-07-25T08:48:57.897Z,20.36
2022-07-25T08:51:28.903Z,20.42
2022-07-25T08:53:55.969Z,20.06
2022-07-25T08:56:29.070Z,20.54
2022-07-25T08:58:59.387Z,20.59
2022-07-25T09:01:35.992Z,20.94
2022-07-25T09:04:11.742Z,20.94
2022-07-25T09:07:08.098Z,21.16
2022-07-25T09:09:40.643Z,21.09
2022-07-25T09:12:13.234Z,21.21
2022-07-25T09:14:54.356Z,21.63
2022-07-25T09:17:38.093Z,21.47
2022-07-25T09:20:38.501Z,21.45
2022-07-25T09:23:05.776Z,22.51
2022-07-25T09:28:21.226Z,22.27
2022-07-25T09:31:02.210Z,21.94
2022-07-25T09:33:56.574Z,22.34
2022-07-25T09:36:27.613Z,22.44
2022-07-25T09:40:04.162Z,23.44
2022-07-25T09:42:53.999Z,22.92
2022-07-25T09:45:28.274Z,23.28
2022-07-25T09:48:09.373Z,23.39
2022-07-25T09:51:04.085Z,23.21
2022-07-25T09:53:37.259Z,23.40
2022-07-25T09:59:45.040Z,23.81
2022-07-25T10:03:16.475Z,23.80
2022-07-25T10:06:29.463Z,24.26
2022-07-25T10:10:14.304Z,25.08
2022-07-25T10:13:35.319Z,25.27
2022-07-25T10:16:30.560Z,25.11
2022-07-25T10:19:02.094Z,25.13
2022-07-25T10:21:29.363Z,25.12
2022-07-25T10:24:13.292Z,25.30
2022-07-25T10:27:08.831Z,25.54
2022-07-25T10:29:40.712Z,25.50
2022-07-25T10:33:04.455Z,25.32
2022-07-25T10:35:35.220Z,25.90
2022-07-25T10:38:06.645Z,26.00
2022-07-25T10:40:44.537Z,26.34
2022-07-25T10:43:48.352Z,26.74
2022-07-25T10:46:28.117Z,26.58
2022-07-25T10:49:32.184Z,26.56
2022-07-25T10:53:22.365Z,25.97
2022-07-25T10:56:29.528Z,26.39
2022-07-25T11:02:18.347Z,26.52
2022-07-25T11:05:02.873Z,27.41
2022-07-25T11:07:36.375Z,27.90
2022-07-25T11:10:06.289Z,27.93
2022-07-25T11:12:33.857Z,27.26
2022-07-25T11:15:17.136Z,27.97
2022-07-25T11:17:56.321Z,28.00
2022-07-25T11:20:26.700Z,28.28
2022-07-25T11:22:56.109Z,28.48
2022-07-25T11:25:33.112Z,28.12
2022-07-25T11:28:13.625Z,27.68
2022-07-25T11:30:49.945Z,26.85
2022-07-25T11:33:26.080Z,26.67
2022-07-25T11:35:55.063Z,26.78
2022-07-25T11:38:33.532Z,28.07
2022-07-25T11:41:15.930Z,27.76
2022-07-25T11:43:50.130Z,27.54
2022-07-25T11:46:18.661Z,27.91
2022-07-25T11:48:46.194Z,28.29
2022-07-25T11:51:21.088Z,27.67
2022-07-25T11:53:51.385Z,27.78
2022-07-25T11:56:42.914Z,28.59
2022-07-25T11:59:11.770Z,27.65
2022-07-25T12:01:43.012Z,28.25
2022-07-25T12:05:17.875Z,29.18
2022-07-25T12:07:55.807Z,28.28
2022-07-25T12:13:45.675Z,29.16
2022-07-25T12:16:13.166Z,27.95
2022-07-25T12:18:41.243Z,27.61
2022-07-25T12:21:46.126Z,28.57
2022-07-25T12:24:45.825Z,28.91
2022-07-25T12:27:13.324Z,28.13
2022-07-25T12:29:54.359Z,28.29
2022-07-25T12:32:42.782Z,27.68
2022-07-25T12:35:15.558Z,28.99
2022-07-25T12:39:59.273Z,29.44
2022-07-25T12:40:51.453Z,29.57
2022-07-25T12:43:42.704Z,29.84
2022-07-25T12:50:03.819Z,29.04
2022-07-25T12:52:40.292Z,29.77
2022-07-25T12:55:15.900Z,29.71
2022-07-25T12:57:44.012Z,29.40
2022-07-25T13:00:28.996Z,29.56
2022-07-25T13:02:59.476Z,29.90
2022-07-25T13:05:42.816Z,29.94
2022-07-25T13:08:10.121Z,29.73
2022-07-25T13:11:34.457Z,29.11
2022-07-25T13:15:12.912Z,29.17
2022-07-25T13:17:40.510Z,28.76
2022-07-25T13:20:19.957Z,29.95
2022-07-25T13:22:50.919Z,29.18
2022-07-25T13:25:18.362Z,28.84
2022-07-25T13:27:47.576Z,28.71
2022-07-25T13:30:15.525Z,29.21
2022-07-25T13:32:42.604Z,28.36
2022-07-25T13:35:09.990Z,28.83
2022-07-25T13:37:49.068Z,29.46
2022-07-25T13:40:16.435Z,29.24
2022-07-25T13:42:43.501Z,29.20
2022-07-25T13:45:10.748Z,28.68
2022-07-25T13:47:38.032Z,28.80
2022-07-25T13:50:08.750Z,28.53
2022-07-25T13:52:35.991Z,28.97
2022-07-25T13:55:04.317Z,28.62
2022-07-25T13:57:33.644Z,29.26
2022-07-25T14:00:01.580Z,29.83
2022-07-25T14:02:29.680Z,29.72
2022-07-25T14:04:59.795Z,29.24
2022-07-25T14:07:30.646Z,29.96
2022-07-25T14:09:58.972Z,30.09
2022-07-25T14:12:32.106Z,30.50
2022-07-25T14:14:59.192Z,30.24
2022-07-25T14:17:30.133Z,30.11
2022-07-25T14:19:57.727Z,29.47
2022-07-25T14:22:24.799Z,29.91
2022-07-25T14:24:52.272Z,30.32
2022-07-25T14:27:19.767Z,30.68
2022-07-25T14:29:49.906Z,31.21
2022-07-25T14:32:17.117Z,30.14
2022-07-25T14:34:44.859Z,29.93
2022-07-25T14:37:18.025Z,29.32
2022-07-25T14:39:48.346Z,29.62
2022-07-25T14:42:15.595Z,29.17
2022-07-25T14:44:52.081Z,28.96
2022-07-25T14:47:22.673Z,28.93
2022-07-25T14:49:57.466Z,28.68
2022-07-25T14:52:24.856Z,28.62
2022-07-25T14:54:52.608Z,28.88
2022-07-25T14:57:20.423Z,28.27
2022-07-25T14:59:50.829Z,27.91
2022-07-25T15:02:20.375Z,27.48
2022-07-25T15:04:47.806Z,27.07
2022-07-25T15:07:14.959Z,26.78
2022-07-25T15:09:43.352Z,26.63
2022-07-25T15:12:24.772Z,26.93
2022-07-25T15:14:55.538Z,26.87
2022-07-25T15:17:22.539Z,27.05
2022-07-25T15:19:49.619Z,26.76
2022-07-25T15:22:52.691Z,26.67
2022-07-25T15:25:58.368Z,26.78
2022-07-25T15:28:16.368Z,27.00
2022-07-25T15:30:46.253Z,27.04
2022-07-25T15:33:25.743Z,27.32
2022-07-25T15:35:55.995Z,28.27
2022-07-25T15:38:26.669Z,28.31
2022-07-25T15:41:19.953Z,28.07
2022-07-25T15:48:41.142Z,28.96
2022-07-25T15:51:08.796Z,28.83
2022-07-25T15:54:24.030Z,29.98
2022-07-25T15:57:18.732Z,30.90
2022-07-25T16:00:34.672Z,29.93
2022-07-25T16:03:02.977Z,30.23
2022-07-25T16:08:45.291Z,29.52
2022-07-25T16:11:33.795Z,28.79
2022-07-25T16:14:01.607Z,28.13
2022-07-25T16:16:32.750Z,28.32
2022-07-25T16:19:00.759Z,28.73
2022-07-25T16:21:28.405Z,27.85
2022-07-25T16:26:48.059Z,26.95
2022-07-25T16:32:26.215Z,26.50
2022-07-25T16:35:16.327Z,26.32
2022-07-25T16:37:43.678Z,26.36
2022-07-25T16:40:11.754Z,25.95
2022-07-25T16:42:59.935Z,26.19
2022-07-25T16:45:30.545Z,25.72
2022-07-25T16:47:57.625Z,25.75
2022-07-25T16:50:24.713Z,25.60
2022-07-25T16:52:53.597Z,25.68
2022-07-25T16:55:24.040Z,25.67
2022-07-25T16:57:51.075Z,25.51
2022-07-25T17:00:18.524Z,25.30
2022-07-25T17:02:46.681Z,25.13
2022-07-25T17:05:35.468Z,24.15
2022-07-25T17:08:37.788Z,22.51
2022-07-25T17:11:08.595Z,21.39
2022-07-25T17:13:35.723Z,20.86
2022-07-25T17:16:03.966Z,20.20
2022-07-25T17:18:31.507Z,19.59
2022-07-25T17:21:10.880Z,19.17
2022-07-25T17:23:47.403Z,18.67
2022-07-25T17:26:14.924Z,18.59
2022-07-25T17:28:53.938Z,18.31
2022-07-25T17:31:47.608Z,18.06
2022-07-25T17:34:14.741Z,18.53
2022-07-25T17:40:48.059Z,19.34
2022-07-25T17:43:21.778Z,17.05
2022-07-25T17:46:28.343Z,16.29
2022-07-25T17:49:04.804Z,16.66
2022-07-25T17:51:42.338Z,16.52
2022-07-25T17:57:02.965Z,16.32
2022-07-25T17:59:30.414Z,16.46
2022-07-25T18:02:45.745Z,16.10
2022-07-25T18:05:21.458Z,15.68
2022-07-25T18:08:35.564Z,14.94
2022-07-25T18:11:23.058Z,14.56
2022-07-25T18:21:30.248Z,14.63
2022-07-25T18:28:14.239Z,14.79
2022-07-25T18:30:41.651Z,15.55
2022-07-25T18:33:26.593Z,15.66
2022-07-25T18:35:53.868Z,15.72
2022-07-25T18:39:05.933Z,16.14
2022-07-25T18:41:57.555Z,15.89
2022-07-25T18:44:24.631Z,15.95
2022-07-25T18:46:51.626Z,16.09
2022-07-25T18:49:46.126Z,16.04
2022-07-25T18:52:13.760Z,15.90
2022-07-25T18:54:45.942Z,15.63
2022-07-25T18:57:23.337Z,16.02
2022-07-25T19:03:57.013Z,15.79
2022-07-25T19:09:59.410Z,15.29
2022-07-25T19:12:27.267Z,15.35
2022-07-25T19:15:15.983Z,14.68
2022-07-25T19:18:10.493Z,14.67
2022-07-25T19:20:57.192Z,14.52
2022-07-25T19:23:24.157Z,14.43
2022-07-25T19:29:46.482Z,14.03
2022-07-25T19:33:00.239Z,13.86
2022-07-25T19:40:32.465Z,14.25
2022-07-25T19:44:10.768Z,14.17
2022-07-25T19:50:54.365Z,14.52
2022-07-25T19:57:11.901Z,14.60
2022-07-25T20:07:12.519Z,14.73
2022-07-25T20:09:40.396Z,14.28
2022-07-25T20:12:08.602Z,14.44
2022-07-25T20:14:38.162Z,14.32
2022-07-25T20:20:00.741Z,14.64
2022-07-25T20:22:27.873Z,14.58
2022-07-25T20:24:55.280Z,14.30
2022-07-25T20:27:22.853Z,14.55
2022-07-25T20:29:53.042Z,14.47
2022-07-25T20:32:20.407Z,14.47
2022-07-25T20:34:48.215Z,14.38
2022-07-25T20:37:16.292Z,14.06
2022-07-25T20:39:46.321Z,14.15
2022-07-25T20:42:15.744Z,14.06
2022-07-25T20:44:43.189Z,13.86
2022-07-25T20:47:13.709Z,13.71
2022-07-25T20:49:47.051Z,13.77
2022-07-25T20:52:40.686Z,13.67
2022-07-25T20:55:11.033Z,13.39
2022-07-25T20:57:38.086Z,13.43
2022-07-25T21:00:29.664Z,13.34
2022-07-25T21:03:17.865Z,13.20
2022-07-25T21:06:41.660Z,12.82
2022-07-25T21:09:16.299Z,12.81
2022-07-25T21:12:01.118Z,12.90
2022-07-25T21:14:31.502Z,12.84
2022-07-25T21:19:34.000Z,12.98
2022-07-25T21:28:33.770Z,12.76
2022-07-25T21:35:12.692Z,12.51
2022-07-25T21:37:40.369Z,12.66
2022-07-25T21:41:14.492Z,12.74
2022-07-25T21:43:42.626Z,13.18
2022-07-25T21:47:20.367Z,13.18
2022-07-25T21:50:13.841Z,12.89
2022-07-25T21:53:43.865Z,12.66
2022-07-25T21:56:41.474Z,12.83
2022-07-25T22:03:07.296Z,13.33
2022-07-25T22:06:06.801Z,13.28
2022-07-25T22:08:48.524Z,12.55
2022-07-25T22:11:42.294Z,12.22
2022-07-25T22:18:53.923Z,11.68
2022-07-25T22:21:30.265Z,11.99
2022-07-25T22:24:27.898Z,12.24
2022-07-25T22:28:28.440Z,11.68
2022-07-25T22:34:54.890Z,11.78
2022-07-25T23:48:25.144Z,11.02
2022-07-25T23:52:01.016Z,10.65
2022-07-25T23:55:43.528Z,10.79
